sensor_id;sensor_type;location;lat;lon;timestamp;P1;durP1;ratioP1;P2;durP2;ratioP2
42244;SDS011;27912;51.828;5.688;2023-10-09T00:00:15;53.13;;;26.33;;
42244;SDS011;27912;51.828;5.688;2023-10-09T00:02:59;44.70;;;23.27;;
42244;SDS011;27912;51.828;5.688;2023-10-09T00:05:25;53.40;;;26.95;;
42244;SDS011;27912;51.828;5.688;2023-10-09T00:08:09;51.78;;;25.75;;
42244;SDS011;27912;51.828;5.688;2023-10-09T00:10:35;43.45;;;23.77;;
42244;SDS011;27912;51.828;5.688;2023-10-09T00:13:10;46.17;;;24.10;;
42244;SDS011;27912;51.828;5.688;2023-10-09T00:15:36;48.78;;;23.67;;
42244;SDS011;27912;51.828;5.688;2023-10-09T00:18:02;47.28;;;24.77;;
42244;SDS011;27912;51.828;5.688;2023-10-09T00:20:37;49.45;;;24.40;;
42244;SDS011;27912;51.828;5.688;2023-10-09T00:23:08;53.70;;;27.42;;
42244;SDS011;27912;51.828;5.688;2023-10-09T00:25:48;53.25;;;27.08;;
42244;SDS011;27912;51.828;5.688;2023-10-09T00:28:36;64.30;;;27.40;;
42244;SDS011;27912;51.828;5.688;2023-10-09T00:31:03;60.38;;;26.73;;
42244;SDS011;27912;51.828;5.688;2023-10-09T00:33:33;56.53;;;29.85;;
42244;SDS011;27912;51.828;5.688;2023-10-09T00:36:05;58.17;;;28.52;;
42244;SDS011;27912;51.828;5.688;2023-10-09T00:38:42;60.08;;;30.50;;
42244;SDS011;27912;51.828;5.688;2023-10-09T00:41:17;55.08;;;28.67;;
42244;SDS011;27912;51.828;5.688;2023-10-09T00:43:46;60.65;;;30.88;;
42244;SDS011;27912;51.828;5.688;2023-10-09T00:46:14;58.38;;;29.63;;
42244;SDS011;27912;51.828;5.688;2023-10-09T00:48:53;60.70;;;29.58;;
42244;SDS011;27912;51.828;5.688;2023-10-09T00:51:28;57.00;;;29.60;;
42244;SDS011;27912;51.828;5.688;2023-10-09T00:56:32;55.53;;;26.52;;
42244;SDS011;27912;51.828;5.688;2023-10-09T00:59:09;58.28;;;30.27;;
42244;SDS011;27912;51.828;5.688;2023-10-09T01:01:45;59.47;;;31.30;;
42244;SDS011;27912;51.828;5.688;2023-10-09T01:04:21;69.55;;;32.38;;
42244;SDS011;27912;51.828;5.688;2023-10-09T01:06:51;59.95;;;32.00;;
42244;SDS011;27912;51.828;5.688;2023-10-09T01:09:40;68.75;;;33.83;;
42244;SDS011;27912;51.828;5.688;2023-10-09T01:12:09;66.60;;;32.35;;
42244;SDS011;27912;51.828;5.688;2023-10-09T01:14:44;67.88;;;34.50;;
42244;SDS011;27912;51.828;5.688;2023-10-09T01:17:11;65.47;;;33.28;;
42244;SDS011;27912;51.828;5.688;2023-10-09T01:22:09;64.80;;;31.92;;
42244;SDS011;27912;51.828;5.688;2023-10-09T01:24:38;72.68;;;33.83;;
42244;SDS011;27912;51.828;5.688;2023-10-09T01:27:04;69.53;;;34.25;;
42244;SDS011;27912;51.828;5.688;2023-10-09T01:29:37;78.32;;;36.38;;
42244;SDS011;27912;51.828;5.688;2023-10-09T01:32:06;66.53;;;33.85;;
42244;SDS011;27912;51.828;5.688;2023-10-09T01:34:34;64.10;;;33.65;;
42244;SDS011;27912;51.828;5.688;2023-10-09T01:37:03;69.95;;;37.40;;
42244;SDS011;27912;51.828;5.688;2023-10-09T01:39:30;63.90;;;35.75;;
42244;SDS011;27912;51.828;5.688;2023-10-09T01:41:56;68.32;;;35.28;;
42244;SDS011;27912;51.828;5.688;2023-10-09T01:44:26;65.85;;;33.95;;
42244;SDS011;27912;51.828;5.688;2023-10-09T01:46:55;65.47;;;34.80;;
42244;SDS011;27912;51.828;5.688;2023-10-09T01:49:23;67.07;;;35.15;;
42244;SDS011;27912;51.828;5.688;2023-10-09T01:51:56;67.43;;;34.03;;
42244;SDS011;27912;51.828;5.688;2023-10-09T01:54:32;64.53;;;34.28;;
42244;SDS011;27912;51.828;5.688;2023-10-09T01:57:01;67.78;;;35.13;;
42244;SDS011;27912;51.828;5.688;2023-10-09T01:59:37;63.20;;;32.05;;
42244;SDS011;27912;51.828;5.688;2023-10-09T02:02:08;62.95;;;33.20;;
42244;SDS011;27912;51.828;5.688;2023-10-09T02:05:03;56.72;;;32.45;;
42244;SDS011;27912;51.828;5.688;2023-10-09T02:07:32;57.33;;;30.67;;
42244;SDS011;27912;51.828;5.688;2023-10-09T02:10:16;58.08;;;31.80;;
42244;SDS011;27912;51.828;5.688;2023-10-09T02:13:01;52.03;;;30.52;;
42244;SDS011;27912;51.828;5.688;2023-10-09T02:15:38;54.40;;;31.90;;
42244;SDS011;27912;51.828;5.688;2023-10-09T02:18:07;49.85;;;28.88;;
42244;SDS011;27912;51.828;5.688;2023-10-09T02:20:52;46.88;;;29.48;;
42244;SDS011;27912;51.828;5.688;2023-10-09T02:23:47;43.40;;;26.35;;
42244;SDS011;27912;51.828;5.688;2023-10-09T02:26:14;48.17;;;28.88;;
42244;SDS011;27912;51.828;5.688;2023-10-09T02:28:51;50.30;;;28.92;;
42244;SDS011;27912;51.828;5.688;2023-10-09T02:33:52;40.28;;;24.33;;
42244;SDS011;27912;51.828;5.688;2023-10-09T02:36:23;46.55;;;27.30;;
42244;SDS011;27912;51.828;5.688;2023-10-09T02:38:49;45.10;;;27.00;;
42244;SDS011;27912;51.828;5.688;2023-10-09T02:41:18;42.90;;;25.48;;
42244;SDS011;27912;51.828;5.688;2023-10-09T02:43:45;40.92;;;25.05;;
42244;SDS011;27912;51.828;5.688;2023-10-09T02:46:12;45.40;;;25.98;;
42244;SDS011;27912;51.828;5.688;2023-10-09T02:48:48;40.08;;;25.85;;
42244;SDS011;27912;51.828;5.688;2023-10-09T02:51:21;39.92;;;23.73;;
42244;SDS011;27912;51.828;5.688;2023-10-09T02:53:50;44.83;;;24.75;;
42244;SDS011;27912;51.828;5.688;2023-10-09T02:56:16;37.30;;;23.02;;
42244;SDS011;27912;51.828;5.688;2023-10-09T02:58:48;37.20;;;23.60;;
42244;SDS011;27912;51.828;5.688;2023-10-09T03:01:17;39.20;;;23.90;;
42244;SDS011;27912;51.828;5.688;2023-10-09T03:03:43;36.17;;;24.02;;
42244;SDS011;27912;51.828;5.688;2023-10-09T03:06:12;35.70;;;23.20;;
42244;SDS011;27912;51.828;5.688;2023-10-09T03:08:48;36.70;;;21.98;;
42244;SDS011;27912;51.828;5.688;2023-10-09T03:11:13;38.28;;;22.58;;
42244;SDS011;27912;51.828;5.688;2023-10-09T03:13:42;38.08;;;22.98;;
42244;SDS011;27912;51.828;5.688;2023-10-09T03:16:12;32.17;;;21.70;;
42244;SDS011;27912;51.828;5.688;2023-10-09T03:18:41;31.00;;;20.80;;
42244;SDS011;27912;51.828;5.688;2023-10-09T03:21:07;35.83;;;22.27;;
42244;SDS011;27912;51.828;5.688;2023-10-09T03:23:33;37.17;;;21.80;;
42244;SDS011;27912;51.828;5.688;2023-10-09T03:25:59;36.45;;;21.70;;
42244;SDS011;27912;51.828;5.688;2023-10-09T03:28:24;34.67;;;21.85;;
42244;SDS011;27912;51.828;5.688;2023-10-09T03:30:51;34.63;;;21.23;;
42244;SDS011;27912;51.828;5.688;2023-10-09T03:33:18;37.05;;;22.35;;
42244;SDS011;27912;51.828;5.688;2023-10-09T03:35:43;37.20;;;23.00;;
42244;SDS011;27912;51.828;5.688;2023-10-09T03:38:09;36.00;;;20.88;;
42244;SDS011;27912;51.828;5.688;2023-10-09T03:40:37;31.25;;;21.23;;
42244;SDS011;27912;51.828;5.688;2023-10-09T03:43:07;38.88;;;21.23;;
42244;SDS011;27912;51.828;5.688;2023-10-09T03:45:35;29.10;;;19.83;;
42244;SDS011;27912;51.828;5.688;2023-10-09T03:48:03;33.60;;;21.00;;
42244;SDS011;27912;51.828;5.688;2023-10-09T03:50:37;29.38;;;19.50;;
42244;SDS011;27912;51.828;5.688;2023-10-09T03:53:06;29.15;;;19.70;;
42244;SDS011;27912;51.828;5.688;2023-10-09T03:55:33;30.00;;;18.67;;
42244;SDS011;27912;51.828;5.688;2023-10-09T03:57:59;31.30;;;19.10;;
42244;SDS011;27912;51.828;5.688;2023-10-09T04:00:27;31.73;;;20.50;;
42244;SDS011;27912;51.828;5.688;2023-10-09T04:02:57;32.83;;;20.05;;
42244;SDS011;27912;51.828;5.688;2023-10-09T04:05:24;37.33;;;20.23;;
42244;SDS011;27912;51.828;5.688;2023-10-09T04:07:50;29.40;;;19.27;;
42244;SDS011;27912;51.828;5.688;2023-10-09T04:10:19;27.40;;;17.90;;
42244;SDS011;27912;51.828;5.688;2023-10-09T04:13:03;31.98;;;18.35;;
42244;SDS011;27912;51.828;5.688;2023-10-09T04:15:33;32.72;;;19.17;;
42244;SDS011;27912;51.828;5.688;2023-10-09T04:18:00;28.15;;;17.45;;
42244;SDS011;27912;51.828;5.688;2023-10-09T04:20:26;31.50;;;18.88;;
42244;SDS011;27912;51.828;5.688;2023-10-09T04:22:54;29.38;;;18.75;;
42244;SDS011;27912;51.828;5.688;2023-10-09T04:25:30;28.88;;;18.55;;
42244;SDS011;27912;51.828;5.688;2023-10-09T04:28:06;30.88;;;18.45;;
42244;SDS011;27912;51.828;5.688;2023-10-09T04:30:43;31.52;;;19.27;;
42244;SDS011;27912;51.828;5.688;2023-10-09T04:33:11;29.10;;;18.08;;
42244;SDS011;27912;51.828;5.688;2023-10-09T04:36:02;28.95;;;17.85;;
42244;SDS011;27912;51.828;5.688;2023-10-09T04:38:46;29.27;;;17.92;;
42244;SDS011;27912;51.828;5.688;2023-10-09T04:41:28;25.47;;;16.70;;
42244;SDS011;27912;51.828;5.688;2023-10-09T04:43:57;25.92;;;15.70;;
42244;SDS011;27912;51.828;5.688;2023-10-09T04:46:47;33.67;;;18.08;;
42244;SDS011;27912;51.828;5.688;2023-10-09T04:49:33;29.65;;;16.10;;
42244;SDS011;27912;51.828;5.688;2023-10-09T04:52:15;28.25;;;18.25;;
42244;SDS011;27912;51.828;5.688;2023-10-09T04:55:04;30.00;;;18.92;;
42244;SDS011;27912;51.828;5.688;2023-10-09T04:57:30;27.90;;;18.30;;
42244;SDS011;27912;51.828;5.688;2023-10-09T05:00:03;29.48;;;17.80;;
42244;SDS011;27912;51.828;5.688;2023-10-09T05:02:51;32.75;;;17.70;;
42244;SDS011;27912;51.828;5.688;2023-10-09T05:05:28;34.10;;;18.77;;
42244;SDS011;27912;51.828;5.688;2023-10-09T05:08:15;30.75;;;18.15;;
42244;SDS011;27912;51.828;5.688;2023-10-09T05:11:05;28.08;;;18.13;;
42244;SDS011;27912;51.828;5.688;2023-10-09T05:13:40;28.60;;;17.35;;
42244;SDS011;27912;51.828;5.688;2023-10-09T05:16:07;31.02;;;19.40;;
42244;SDS011;27912;51.828;5.688;2023-10-09T05:18:38;33.60;;;20.27;;
42244;SDS011;27912;51.828;5.688;2023-10-09T05:21:04;35.17;;;19.45;;
42244;SDS011;27912;51.828;5.688;2023-10-09T05:23:38;32.38;;;20.00;;
42244;SDS011;27912;51.828;5.688;2023-10-09T05:26:14;32.75;;;19.20;;
42244;SDS011;27912;51.828;5.688;2023-10-09T05:29:02;32.30;;;20.40;;
42244;SDS011;27912;51.828;5.688;2023-10-09T05:31:44;33.23;;;18.90;;
42244;SDS011;27912;51.828;5.688;2023-10-09T05:34:28;27.95;;;18.10;;
42244;SDS011;27912;51.828;5.688;2023-10-09T05:37:08;30.08;;;18.90;;
42244;SDS011;27912;51.828;5.688;2023-10-09T05:39:45;36.38;;;20.05;;
42244;SDS011;27912;51.828;5.688;2023-10-09T05:42:24;28.08;;;19.08;;
42244;SDS011;27912;51.828;5.688;2023-10-09T05:44:54;34.42;;;20.90;;
42244;SDS011;27912;51.828;5.688;2023-10-09T05:47:38;35.25;;;19.98;;
42244;SDS011;27912;51.828;5.688;2023-10-09T05:50:08;38.30;;;20.60;;
42244;SDS011;27912;51.828;5.688;2023-10-09T05:52:34;35.85;;;19.92;;
42244;SDS011;27912;51.828;5.688;2023-10-09T05:55:03;35.90;;;20.95;;
42244;SDS011;27912;51.828;5.688;2023-10-09T05:57:44;37.00;;;22.10;;
42244;SDS011;27912;51.828;5.688;2023-10-09T06:00:29;36.83;;;21.15;;
42244;SDS011;27912;51.828;5.688;2023-10-09T06:03:13;35.10;;;19.92;;
42244;SDS011;27912;51.828;5.688;2023-10-09T06:05:45;38.47;;;20.33;;
42244;SDS011;27912;51.828;5.688;2023-10-09T06:08:26;33.58;;;19.67;;
42244;SDS011;27912;51.828;5.688;2023-10-09T06:11:05;38.65;;;20.90;;
42244;SDS011;27912;51.828;5.688;2023-10-09T06:13:53;39.72;;;20.33;;
42244;SDS011;27912;51.828;5.688;2023-10-09T06:16:33;30.27;;;20.52;;
42244;SDS011;27912;51.828;5.688;2023-10-09T06:19:21;34.30;;;21.65;;
42244;SDS011;27912;51.828;5.688;2023-10-09T06:21:57;37.13;;;20.17;;
42244;SDS011;27912;51.828;5.688;2023-10-09T06:25:04;30.80;;;20.50;;
42244;SDS011;27912;51.828;5.688;2023-10-09T06:27:37;31.38;;;19.50;;
42244;SDS011;27912;51.828;5.688;2023-10-09T06:30:11;38.40;;;20.83;;
42244;SDS011;27912;51.828;5.688;2023-10-09T06:32:37;36.08;;;20.83;;
42244;SDS011;27912;51.828;5.688;2023-10-09T06:35:14;30.65;;;18.05;;
42244;SDS011;27912;51.828;5.688;2023-10-09T06:37:50;36.55;;;20.90;;
42244;SDS011;27912;51.828;5.688;2023-10-09T06:40:35;30.20;;;18.05;;
42244;SDS011;27912;51.828;5.688;2023-10-09T06:43:05;37.28;;;19.77;;
42244;SDS011;27912;51.828;5.688;2023-10-09T06:45:42;35.25;;;18.45;;
42244;SDS011;27912;51.828;5.688;2023-10-09T06:48:11;34.72;;;20.05;;
42244;SDS011;27912;51.828;5.688;2023-10-09T06:50:56;26.42;;;17.70;;
42244;SDS011;27912;51.828;5.688;2023-10-09T06:53:45;33.70;;;19.52;;
42244;SDS011;27912;51.828;5.688;2023-10-09T06:56:23;27.70;;;17.40;;
42244;SDS011;27912;51.828;5.688;2023-10-09T06:59:15;29.35;;;17.23;;
42244;SDS011;27912;51.828;5.688;2023-10-09T07:01:46;33.30;;;18.27;;
42244;SDS011;27912;51.828;5.688;2023-10-09T07:04:16;29.40;;;17.77;;
42244;SDS011;27912;51.828;5.688;2023-10-09T07:06:45;29.48;;;17.90;;
42244;SDS011;27912;51.828;5.688;2023-10-09T07:09:11;30.65;;;17.95;;
42244;SDS011;27912;51.828;5.688;2023-10-09T07:11:38;27.55;;;16.67;;
42244;SDS011;27912;51.828;5.688;2023-10-09T07:14:05;34.65;;;18.40;;
42244;SDS011;27912;51.828;5.688;2023-10-09T07:16:59;29.58;;;16.25;;
42244;SDS011;27912;51.828;5.688;2023-10-09T07:19:53;31.95;;;16.50;;
42244;SDS011;27912;51.828;5.688;2023-10-09T07:22:19;29.67;;;18.48;;
42244;SDS011;27912;51.828;5.688;2023-10-09T07:24:44;28.85;;;17.92;;
42244;SDS011;27912;51.828;5.688;2023-10-09T07:27:16;28.42;;;16.23;;
42244;SDS011;27912;51.828;5.688;2023-10-09T07:29:42;27.60;;;16.23;;
42244;SDS011;27912;51.828;5.688;2023-10-09T07:32:16;28.23;;;16.10;;
42244;SDS011;27912;51.828;5.688;2023-10-09T07:34:47;26.30;;;16.63;;
42244;SDS011;27912;51.828;5.688;2023-10-09T07:37:23;28.15;;;16.45;;
42244;SDS011;27912;51.828;5.688;2023-10-09T07:39:55;30.00;;;17.80;;
42244;SDS011;27912;51.828;5.688;2023-10-09T07:42:24;28.13;;;16.90;;
42244;SDS011;27912;51.828;5.688;2023-10-09T07:45:05;31.90;;;18.25;;
42244;SDS011;27912;51.828;5.688;2023-10-09T07:47:43;32.20;;;18.50;;
42244;SDS011;27912;51.828;5.688;2023-10-09T07:50:37;27.50;;;16.73;;
42244;SDS011;27912;51.828;5.688;2023-10-09T07:53:06;29.50;;;15.77;;
42244;SDS011;27912;51.828;5.688;2023-10-09T07:55:51;29.02;;;17.92;;
42244;SDS011;27912;51.828;5.688;2023-10-09T07:58:24;28.77;;;16.85;;
42244;SDS011;27912;51.828;5.688;2023-10-09T08:00:56;25.77;;;16.27;;
42244;SDS011;27912;51.828;5.688;2023-10-09T08:03:36;28.52;;;17.08;;
42244;SDS011;27912;51.828;5.688;2023-10-09T08:06:02;28.50;;;17.60;;
42244;SDS011;27912;51.828;5.688;2023-10-09T08:08:46;31.67;;;18.83;;
42244;SDS011;27912;51.828;5.688;2023-10-09T08:11:34;30.58;;;17.70;;
42244;SDS011;27912;51.828;5.688;2023-10-09T08:14:08;31.58;;;17.95;;
42244;SDS011;27912;51.828;5.688;2023-10-09T08:17:06;28.42;;;16.77;;
42244;SDS011;27912;51.828;5.688;2023-10-09T08:19:41;26.25;;;17.73;;
42244;SDS011;27912;51.828;5.688;2023-10-09T08:22:20;30.30;;;18.20;;
42244;SDS011;27912;51.828;5.688;2023-10-09T08:24:50;26.90;;;16.27;;
42244;SDS011;27912;51.828;5.688;2023-10-09T08:30:00;29.70;;;17.55;;
42244;SDS011;27912;51.828;5.688;2023-10-09T08:32:46;30.23;;;18.45;;
42244;SDS011;27912;51.828;5.688;2023-10-09T08:35:32;34.85;;;20.42;;
42244;SDS011;27912;51.828;5.688;2023-10-09T08:37:59;32.97;;;20.88;;
42244;SDS011;27912;51.828;5.688;2023-10-09T08:40:33;31.88;;;19.50;;
42244;SDS011;27912;51.828;5.688;2023-10-09T08:43:13;33.22;;;19.77;;
42244;SDS011;27912;51.828;5.688;2023-10-09T08:45:39;35.40;;;21.05;;
42244;SDS011;27912;51.828;5.688;2023-10-09T08:48:10;25.60;;;17.85;;
42244;SDS011;27912;51.828;5.688;2023-10-09T08:50:43;31.80;;;19.35;;
42244;SDS011;27912;51.828;5.688;2023-10-09T08:53:10;36.35;;;19.50;;
42244;SDS011;27912;51.828;5.688;2023-10-09T08:55:37;32.20;;;18.60;;
42244;SDS011;27912;51.828;5.688;2023-10-09T08:58:06;31.10;;;19.10;;
42244;SDS011;27912;51.828;5.688;2023-10-09T09:00:40;30.90;;;18.65;;
42244;SDS011;27912;51.828;5.688;2023-10-09T09:03:10;26.67;;;18.05;;
42244;SDS011;27912;51.828;5.688;2023-10-09T09:05:46;25.08;;;17.60;;
42244;SDS011;27912;51.828;5.688;2023-10-09T09:08:21;33.90;;;18.27;;
42244;SDS011;27912;51.828;5.688;2023-10-09T09:11:36;28.65;;;17.70;;
42244;SDS011;27912;51.828;5.688;2023-10-09T09:13:47;28.57;;;17.33;;
42244;SDS011;27912;51.828;5.688;2023-10-09T09:16:19;35.53;;;19.13;;
42244;SDS011;27912;51.828;5.688;2023-10-09T09:21:26;30.08;;;17.55;;
42244;SDS011;27912;51.828;5.688;2023-10-09T09:23:53;26.75;;;15.55;;
42244;SDS011;27912;51.828;5.688;2023-10-09T09:26:35;20.23;;;13.90;;
42244;SDS011;27912;51.828;5.688;2023-10-09T09:29:03;26.63;;;15.50;;
42244;SDS011;27912;51.828;5.688;2023-10-09T09:31:30;29.80;;;16.75;;
42244;SDS011;27912;51.828;5.688;2023-10-09T09:34:02;28.92;;;17.58;;
42244;SDS011;27912;51.828;5.688;2023-10-09T09:36:49;36.10;;;14.75;;
42244;SDS011;27912;51.828;5.688;2023-10-09T09:39:19;25.38;;;15.43;;
42244;SDS011;27912;51.828;5.688;2023-10-09T09:41:52;26.25;;;14.02;;
42244;SDS011;27912;51.828;5.688;2023-10-09T09:44:44;24.33;;;13.05;;
42244;SDS011;27912;51.828;5.688;2023-10-09T09:47:13;20.27;;;13.63;;
42244;SDS011;27912;51.828;5.688;2023-10-09T09:49:48;24.27;;;12.52;;
42244;SDS011;27912;51.828;5.688;2023-10-09T09:52:15;20.27;;;12.00;;
42244;SDS011;27912;51.828;5.688;2023-10-09T09:54:43;24.02;;;12.23;;
42244;SDS011;27912;51.828;5.688;2023-10-09T09:57:08;26.60;;;13.07;;
42244;SDS011;27912;51.828;5.688;2023-10-09T09:59:39;22.00;;;12.35;;
42244;SDS011;27912;51.828;5.688;2023-10-09T10:02:06;21.98;;;13.45;;
42244;SDS011;27912;51.828;5.688;2023-10-09T10:04:36;24.30;;;12.45;;
42244;SDS011;27912;51.828;5.688;2023-10-09T10:07:06;21.98;;;13.65;;
42244;SDS011;27912;51.828;5.688;2023-10-09T10:09:37;16.98;;;11.15;;
42244;SDS011;27912;51.828;5.688;2023-10-09T10:12:04;20.30;;;13.00;;
42244;SDS011;27912;51.828;5.688;2023-10-09T10:17:24;18.83;;;10.95;;
42244;SDS011;27912;51.828;5.688;2023-10-09T10:20:07;25.77;;;13.57;;
42244;SDS011;27912;51.828;5.688;2023-10-09T10:22:39;18.40;;;11.55;;
42244;SDS011;27912;51.828;5.688;2023-10-09T10:25:10;19.02;;;11.13;;
42244;SDS011;27912;51.828;5.688;2023-10-09T10:31:03;27.63;;;12.35;;
42244;SDS011;27912;51.828;5.688;2023-10-09T10:36:21;18.33;;;9.63;;
42244;SDS011;27912;51.828;5.688;2023-10-09T10:41:35;19.02;;;10.23;;
42244;SDS011;27912;51.828;5.688;2023-10-09T10:44:13;20.15;;;10.07;;
42244;SDS011;27912;51.828;5.688;2023-10-09T10:46:57;18.05;;;9.25;;
42244;SDS011;27912;51.828;5.688;2023-10-09T10:49:23;18.90;;;9.77;;
42244;SDS011;27912;51.828;5.688;2023-10-09T10:51:50;17.50;;;9.55;;
42244;SDS011;27912;51.828;5.688;2023-10-09T10:54:48;18.67;;;9.95;;
42244;SDS011;27912;51.828;5.688;2023-10-09T10:57:46;16.00;;;8.10;;
42244;SDS011;27912;51.828;5.688;2023-10-09T11:00:18;15.60;;;8.05;;
42244;SDS011;27912;51.828;5.688;2023-10-09T11:03:03;17.02;;;9.77;;
42244;SDS011;27912;51.828;5.688;2023-10-09T11:05:44;16.23;;;8.20;;
42244;SDS011;27912;51.828;5.688;2023-10-09T11:08:23;17.63;;;9.50;;
42244;SDS011;27912;51.828;5.688;2023-10-09T11:11:09;16.35;;;8.75;;
42244;SDS011;27912;51.828;5.688;2023-10-09T11:13:40;19.73;;;8.82;;
42244;SDS011;27912;51.828;5.688;2023-10-09T11:16:22;13.32;;;7.80;;
42244;SDS011;27912;51.828;5.688;2023-10-09T11:19:07;16.65;;;8.05;;
42244;SDS011;27912;51.828;5.688;2023-10-09T11:21:51;14.77;;;8.55;;
42244;SDS011;27912;51.828;5.688;2023-10-09T11:24:24;15.77;;;8.88;;
42244;SDS011;27912;51.828;5.688;2023-10-09T11:26:55;15.48;;;8.20;;
42244;SDS011;27912;51.828;5.688;2023-10-09T11:29:22;11.95;;;6.00;;
42244;SDS011;27912;51.828;5.688;2023-10-09T11:31:58;16.60;;;8.30;;
42244;SDS011;27912;51.828;5.688;2023-10-09T11:34:30;15.32;;;7.32;;
42244;SDS011;27912;51.828;5.688;2023-10-09T11:37:01;13.73;;;7.28;;
42244;SDS011;27912;51.828;5.688;2023-10-09T11:39:30;13.35;;;6.80;;
42244;SDS011;27912;51.828;5.688;2023-10-09T11:42:04;12.90;;;7.10;;
42244;SDS011;27912;51.828;5.688;2023-10-09T11:44:34;18.27;;;8.05;;
42244;SDS011;27912;51.828;5.688;2023-10-09T11:47:05;12.93;;;6.50;;
42244;SDS011;27912;51.828;5.688;2023-10-09T11:49:52;14.20;;;7.15;;
42244;SDS011;27912;51.828;5.688;2023-10-09T11:52:26;14.02;;;6.90;;
42244;SDS011;27912;51.828;5.688;2023-10-09T11:55:03;13.07;;;6.47;;
42244;SDS011;27912;51.828;5.688;2023-10-09T11:57:32;11.80;;;6.38;;
42244;SDS011;27912;51.828;5.688;2023-10-09T12:00:02;14.60;;;6.82;;
42244;SDS011;27912;51.828;5.688;2023-10-09T12:02:48;12.48;;;5.72;;
42244;SDS011;27912;51.828;5.688;2023-10-09T12:05:14;16.13;;;7.10;;
42244;SDS011;27912;51.828;5.688;2023-10-09T12:07:42;15.45;;;7.28;;
42244;SDS011;27912;51.828;5.688;2023-10-09T12:10:10;16.52;;;6.90;;
42244;SDS011;27912;51.828;5.688;2023-10-09T12:12:38;18.08;;;6.32;;
42244;SDS011;27912;51.828;5.688;2023-10-09T12:15:05;11.73;;;5.22;;
42244;SDS011;27912;51.828;5.688;2023-10-09T12:17:31;11.50;;;5.32;;
42244;SDS011;27912;51.828;5.688;2023-10-09T12:19:57;12.00;;;5.90;;
42244;SDS011;27912;51.828;5.688;2023-10-09T12:22:24;13.68;;;5.50;;
42244;SDS011;27912;51.828;5.688;2023-10-09T12:24:52;13.10;;;5.60;;
42244;SDS011;27912;51.828;5.688;2023-10-09T12:27:18;10.07;;;5.00;;
42244;SDS011;27912;51.828;5.688;2023-10-09T12:29:45;12.02;;;5.65;;
42244;SDS011;27912;51.828;5.688;2023-10-09T12:32:11;19.67;;;11.30;;
42244;SDS011;27912;51.828;5.688;2023-10-09T12:34:37;17.88;;;6.20;;
42244;SDS011;27912;51.828;5.688;2023-10-09T12:37:03;11.48;;;5.05;;
42244;SDS011;27912;51.828;5.688;2023-10-09T12:39:29;11.45;;;4.90;;
42244;SDS011;27912;51.828;5.688;2023-10-09T12:42:05;10.52;;;4.85;;
42244;SDS011;27912;51.828;5.688;2023-10-09T12:44:34;11.35;;;4.63;;
42244;SDS011;27912;51.828;5.688;2023-10-09T12:47:04;12.93;;;4.20;;
42244;SDS011;27912;51.828;5.688;2023-10-09T12:49:30;10.80;;;4.55;;
42244;SDS011;27912;51.828;5.688;2023-10-09T12:51:56;11.98;;;4.95;;
42244;SDS011;27912;51.828;5.688;2023-10-09T12:54:22;13.77;;;4.53;;
42244;SDS011;27912;51.828;5.688;2023-10-09T12:56:52;8.93;;;4.53;;
42244;SDS011;27912;51.828;5.688;2023-10-09T12:59:19;10.32;;;4.15;;
42244;SDS011;27912;51.828;5.688;2023-10-09T13:01:45;9.95;;;4.18;;
42244;SDS011;27912;51.828;5.688;2023-10-09T13:04:14;11.20;;;4.55;;
42244;SDS011;27912;51.828;5.688;2023-10-09T13:06:41;12.88;;;4.53;;
42244;SDS011;27912;51.828;5.688;2023-10-09T13:09:15;10.25;;;4.28;;
42244;SDS011;27912;51.828;5.688;2023-10-09T13:11:41;7.43;;;3.83;;
42244;SDS011;27912;51.828;5.688;2023-10-09T13:14:08;9.20;;;4.72;;
42244;SDS011;27912;51.828;5.688;2023-10-09T13:16:42;9.00;;;4.63;;
42244;SDS011;27912;51.828;5.688;2023-10-09T13:19:08;8.65;;;3.92;;
42244;SDS011;27912;51.828;5.688;2023-10-09T13:21:37;13.95;;;4.85;;
42244;SDS011;27912;51.828;5.688;2023-10-09T13:24:05;13.45;;;5.88;;
42244;SDS011;27912;51.828;5.688;2023-10-09T13:26:37;11.80;;;4.90;;
42244;SDS011;27912;51.828;5.688;2023-10-09T13:29:04;12.75;;;4.57;;
42244;SDS011;27912;51.828;5.688;2023-10-09T13:31:34;33.50;;;18.52;;
42244;SDS011;27912;51.828;5.688;2023-10-09T13:34:03;34.10;;;20.40;;
42244;SDS011;27912;51.828;5.688;2023-10-09T13:36:31;15.65;;;8.43;;
42244;SDS011;27912;51.828;5.688;2023-10-09T13:38:58;16.67;;;5.80;;
42244;SDS011;27912;51.828;5.688;2023-10-09T13:41:50;11.52;;;4.75;;
42244;SDS011;27912;51.828;5.688;2023-10-09T13:44:22;12.85;;;4.85;;
42244;SDS011;27912;51.828;5.688;2023-10-09T13:46:52;11.88;;;4.30;;
42244;SDS011;27912;51.828;5.688;2023-10-09T13:49:21;13.07;;;5.03;;
42244;SDS011;27912;51.828;5.688;2023-10-09T13:51:48;13.95;;;5.30;;
42244;SDS011;27912;51.828;5.688;2023-10-09T13:54:15;15.80;;;8.75;;
42244;SDS011;27912;51.828;5.688;2023-10-09T13:57:08;15.10;;;4.78;;
42244;SDS011;27912;51.828;5.688;2023-10-09T13:59:35;10.75;;;4.55;;
42244;SDS011;27912;51.828;5.688;2023-10-09T14:02:02;9.43;;;4.68;;
42244;SDS011;27912;51.828;5.688;2023-10-09T14:04:34;11.07;;;4.95;;
42244;SDS011;27912;51.828;5.688;2023-10-09T14:07:00;8.32;;;3.75;;
42244;SDS011;27912;51.828;5.688;2023-10-09T14:09:27;11.18;;;3.90;;
42244;SDS011;27912;51.828;5.688;2023-10-09T14:11:59;8.90;;;4.38;;
42244;SDS011;27912;51.828;5.688;2023-10-09T14:14:34;7.80;;;4.00;;
42244;SDS011;27912;51.828;5.688;2023-10-09T14:17:04;16.92;;;7.00;;
42244;SDS011;27912;51.828;5.688;2023-10-09T14:19:36;19.58;;;8.18;;
42244;SDS011;27912;51.828;5.688;2023-10-09T14:22:16;13.40;;;5.70;;
42244;SDS011;27912;51.828;5.688;2023-10-09T14:24:42;19.73;;;8.98;;
42244;SDS011;27912;51.828;5.688;2023-10-09T14:27:13;17.00;;;5.85;;
42244;SDS011;27912;51.828;5.688;2023-10-09T14:29:44;16.42;;;5.38;;
42244;SDS011;27912;51.828;5.688;2023-10-09T14:32:10;12.48;;;5.15;;
42244;SDS011;27912;51.828;5.688;2023-10-09T14:34:38;12.90;;;5.20;;
42244;SDS011;27912;51.828;5.688;2023-10-09T14:37:08;10.20;;;5.00;;
42244;SDS011;27912;51.828;5.688;2023-10-09T14:39:37;11.32;;;4.88;;
42244;SDS011;27912;51.828;5.688;2023-10-09T14:42:03;14.13;;;5.45;;
42244;SDS011;27912;51.828;5.688;2023-10-09T14:44:34;13.30;;;5.40;;
42244;SDS011;27912;51.828;5.688;2023-10-09T14:47:03;13.63;;;5.07;;
42244;SDS011;27912;51.828;5.688;2023-10-09T14:49:30;15.25;;;5.03;;
42244;SDS011;27912;51.828;5.688;2023-10-09T14:52:00;13.82;;;5.93;;
42244;SDS011;27912;51.828;5.688;2023-10-09T14:54:26;12.23;;;5.55;;
42244;SDS011;27912;51.828;5.688;2023-10-09T14:56:52;15.23;;;4.50;;
42244;SDS011;27912;51.828;5.688;2023-10-09T14:59:19;14.25;;;4.20;;
42244;SDS011;27912;51.828;5.688;2023-10-09T15:01:47;14.65;;;5.38;;
42244;SDS011;27912;51.828;5.688;2023-10-09T15:04:15;8.68;;;4.13;;
42244;SDS011;27912;51.828;5.688;2023-10-09T15:06:40;15.93;;;4.57;;
42244;SDS011;27912;51.828;5.688;2023-10-09T15:09:06;12.25;;;5.07;;
42244;SDS011;27912;51.828;5.688;2023-10-09T15:11:39;11.43;;;4.40;;
42244;SDS011;27912;51.828;5.688;2023-10-09T15:14:05;13.48;;;4.68;;
42244;SDS011;27912;51.828;5.688;2023-10-09T15:16:31;16.15;;;5.30;;
42244;SDS011;27912;51.828;5.688;2023-10-09T15:18:57;13.13;;;5.20;;
42244;SDS011;27912;51.828;5.688;2023-10-09T15:21:25;15.88;;;5.32;;
42244;SDS011;27912;51.828;5.688;2023-10-09T15:23:52;13.85;;;4.72;;